Main page
METAR-TAF:

METAR-TAF

Airports :

Mytilene-Lesbos, Greece

Mytilene International Airport

latitude: 39-04N, longitude: 026-36E, elevation: 3 m

Current weather observation

The report was made 2 hours and 51 minutes ago, at 20:20 UTC
Wind 6 kt from the South/Southeast, varying between Southeast and Southwest
Temperature 10°C
Humidity 57%
Pressure 1017 hPa
Visibility 10 km or more
Few clouds at a height of 2000 ft

METAR: LGMT 192020Z 15006KT 130V230 9999 FEW020 10/02 Q1017

Time: 01:11 (23:11 UTC)

Forecast

The report was made 3 hours and 11 minutes ago, at 20:00 UTC
Forecast valid from 19 at 21 UTC to 20 at 06 UTC
Wind 15 kt from the South/Southeast
Visibility 10 km or more
Few clouds at a height of 2500 ft

TAF: LGMT 192000Z 1921/2006 15015KT 9999 FEW025

Weather observations and forecasts of more than 4000 airports (METAR and TAF reports).

The available stations are represented by yellow and red dots on the map.

Hover mouse over dot to see the name of the station.

Then click to see weather observations and forecasts.

To change the map : click on the green buttons with a black cross to zoom in, on the green button with a dash to zoom out, or on the green arrows for adjacent maps.


METAR-TAF: